Time;durP1;ratioP1;P1;durP2;ratioP2;P2;SDS_P1;SDS_P2;PMS_P1;PMS_P2;Temp;Humidity;BMP_temperature;BMP_pressure;BME280_temperature;BME280_humidity;BME280_pressure;Samples;Min_cycle;Max_cycle;Signal;HPM_P1;HPM_P2
2021/01/29 00:01:49;;;;;;;27.77;15.10;;;3.20;93.80;;;;;;5033858;28;20029;-89
2021/01/29 00:04:15;;;;;;;27.77;15.17;;;3.20;94.00;;;;;;5018171;28;20079;-90
2021/01/29 00:06:40;;;;;;;27.70;15.30;;;3.20;93.90;;;;;;5018396;28;20076;-90
2021/01/29 00:09:06;;;;;;;31.70;15.13;;;3.30;93.90;;;;;;5018361;28;20099;-90
2021/01/29 00:11:32;;;;;;;26.73;13.97;;;3.30;93.80;;;;;;5018315;28;20032;-90
2021/01/29 00:13:57;;;;;;;27.33;14.00;;;3.30;93.70;;;;;;5035603;28;20048;-90
2021/01/29 00:16:23;;;;;;;26.47;14.03;;;3.40;93.50;;;;;;5018009;28;20115;-90
2021/01/29 00:18:48;;;;;;;27.37;14.30;;;3.40;93.60;;;;;;5018144;28;20017;-90
2021/01/29 00:21:14;;;;;;;30.50;16.00;;;3.40;93.50;;;;;;5018222;28;20018;-90
2021/01/29 00:23:40;;;;;;;24.07;12.97;;;3.40;93.40;;;;;;5017651;28;20050;-90
2021/01/29 00:26:05;;;;;;;29.17;15.03;;;3.40;93.40;;;;;;5018215;28;20029;-90
2021/01/29 00:28:31;;;;;;;27.67;14.90;;;3.40;93.70;;;;;;5018090;28;20036;-90
2021/01/29 00:30:57;;;;;;;26.20;14.13;;;3.40;93.40;;;;;;5014676;28;20045;-90
2021/01/29 00:33:26;;;;;;;26.00;13.27;;;3.40;93.40;;;;;;4997853;28;20398;-90
2021/01/29 00:35:52;;;;;;;27.13;13.83;;;3.40;93.40;;;;;;4997915;28;20509;-90
2021/01/29 00:38:19;;;;;;;27.57;14.30;;;3.40;93.40;;;;;;4998455;28;20423;-90
2021/01/29 00:40:44;;;;;;;26.03;13.43;;;3.50;93.40;;;;;;4997866;28;20030;-90
2021/01/29 00:43:10;;;;;;;26.33;13.40;;;3.50;93.30;;;;;;4997813;28;20025;-91
2021/01/29 00:45:38;;;;;;;26.17;13.43;;;3.50;93.30;;;;;;4997951;28;20026;-89
2021/01/29 00:48:06;;;;;;;28.63;14.63;;;3.50;93.20;;;;;;4998152;28;20133;-90
2021/01/29 00:50:31;;;;;;;26.40;14.00;;;3.50;93.30;;;;;;4999481;28;20041;-90
2021/01/29 00:52:58;;;;;;;28.13;15.00;;;3.50;93.30;;;;;;4997910;28;20061;-90
2021/01/29 00:55:24;;;;;;;27.00;14.37;;;3.50;93.60;;;;;;4997483;28;20033;-90
2021/01/29 00:57:49;;;;;;;26.20;14.60;;;3.40;93.40;;;;;;4997830;28;20507;-89
2021/01/29 01:00:16;;;;;;;27.80;14.70;;;3.50;93.40;;;;;;4997491;28;20089;-90
2021/01/29 01:02:42;;;;;;;27.73;14.53;;;3.50;93.40;;;;;;4997426;28;20199;-90
2021/01/29 01:05:09;;;;;;;28.23;14.80;;;3.40;93.40;;;;;;4997396;28;20120;-90
2021/01/29 01:07:35;;;;;;;28.77;14.90;;;3.40;93.40;;;;;;4997402;28;20558;-90
2021/01/29 01:10:00;;;;;;;28.43;14.87;;;3.40;93.40;;;;;;4997474;28;20037;-90
2021/01/29 01:12:26;;;;;;;25.37;13.57;;;3.40;93.80;;;;;;4997509;28;20036;-90
2021/01/29 01:14:52;;;;;;;30.33;14.77;;;3.40;93.50;;;;;;4997670;28;20030;-90
2021/01/29 01:17:17;;;;;;;27.20;14.27;;;3.40;93.50;;;;;;4997742;28;20029;-90
2021/01/29 01:19:43;;;;;;;27.17;14.30;;;3.40;93.50;;;;;;4997361;28;20026;-90
2021/01/29 01:22:09;;;;;;;27.63;13.87;;;3.40;93.50;;;;;;4997492;28;20022;-90
2021/01/29 01:24:41;;;;;;;28.83;14.97;;;3.40;93.60;;;;;;4997197;28;20033;-90
2021/01/29 01:27:18;;;;;;;26.23;14.23;;;3.30;93.70;;;;;;4997640;28;20066;-90
2021/01/29 01:29:43;;;;;;;30.87;14.43;;;3.30;93.70;;;;;;4997182;28;20080;-90
2021/01/29 01:32:09;;;;;;;26.23;12.93;;;3.40;93.60;;;;;;5014794;28;20078;-90
2021/01/29 01:34:35;;;;;;;26.10;14.07;;;3.40;93.70;;;;;;4997213;28;20460;-90
2021/01/29 01:37:02;;;;;;;28.83;14.77;;;3.40;93.60;;;;;;4997263;28;20029;-90
2021/01/29 01:39:27;;;;;;;26.93;14.23;;;3.40;93.70;;;;;;4998723;28;20025;-89
2021/01/29 01:41:55;;;;;;;27.20;14.20;;;3.40;93.70;;;;;;4998235;28;20046;-90
2021/01/29 01:44:40;;;;;;;26.63;14.30;;;3.40;93.70;;;;;;4997715;28;20479;-90
2021/01/29 01:47:24;;;;;;;27.60;14.17;;;3.40;93.70;;;;;;4997659;28;20093;-89
2021/01/29 01:49:54;;;;;;;27.07;14.00;;;3.40;93.60;;;;;;4997695;28;20431;-90
2021/01/29 01:52:24;;;;;;;;;;;3.40;93.70;;;;;;4998105;28;20112;-89
2021/01/29 01:55:05;;;;;;;25.63;13.30;;;3.40;93.70;;;;;;4996553;28;19920;-90
2021/01/29 01:57:33;;;;;;;27.43;14.40;;;3.30;93.70;;;;;;4996986;28;20054;-89
2021/01/29 02:00:08;;;;;;;27.00;13.87;;;3.30;93.70;;;;;;4996858;28;20022;-90
2021/01/29 02:02:36;;;;;;;26.60;13.83;;;3.40;93.80;;;;;;4996796;28;20022;-91
2021/01/29 02:05:07;;;;;;;27.37;14.27;;;3.40;93.70;;;;;;4996147;28;20026;-90
2021/01/29 02:07:33;;;;;;;28.13;15.37;;;3.30;93.80;;;;;;4996201;28;20026;-90
2021/01/29 02:10:01;;;;;;;26.03;13.23;;;3.40;93.80;;;;;;4996085;28;20030;-89
2021/01/29 02:12:26;;;;;;;28.47;13.67;;;3.40;93.70;;;;;;4996430;28;20034;-90
2021/01/29 02:14:52;;;;;;;27.83;14.10;;;3.30;93.70;;;;;;4997319;28;20022;-90
2021/01/29 02:17:33;;;;;;;28.57;14.53;;;3.40;93.70;;;;;;4996330;28;20033;-89
2021/01/29 02:20:31;;;;;;;27.27;14.13;;;3.40;93.80;;;;;;4996223;28;20060;-90
2021/01/29 02:23:41;;;;;;;27.40;13.75;;;3.40;93.80;;;;;;4995993;28;20018;-90
2021/01/29 02:26:41;;;;;;;26.80;13.70;;;3.30;93.80;;;;;;4979646;28;20026;-90
2021/01/29 02:29:12;;;;;;;27.00;13.50;;;3.30;93.90;;;;;;4996061;28;20034;-89
2021/01/29 02:31:59;;;;;;;27.43;15.70;;;3.20;93.90;;;;;;4999385;28;20136;-89
2021/01/29 02:35:02;;;;;;;27.33;14.30;;;3.30;94.00;;;;;;5015143;28;20030;-90
2021/01/29 02:37:46;;;;;;;26.70;14.70;;;3.30;94.00;;;;;;5015742;28;20026;-90
2021/01/29 02:40:21;;;;;;;27.53;14.53;;;3.30;94.00;;;;;;5015607;28;20026;-90
2021/01/29 02:43:35;;;;;;;26.23;14.03;;;3.30;94.00;;;;;;5015496;28;20096;-90
2021/01/29 02:46:08;;;;;;;25.83;13.20;;;3.30;94.00;;;;;;4956685;28;20030;-90
2021/01/29 02:48:51;;;;;;;26.50;14.80;;;3.30;94.00;;;;;;5015364;28;20112;-89
2021/01/29 02:51:24;;;;;;;26.50;14.27;;;3.30;93.90;;;;;;5015496;28;20079;-90
2021/01/29 02:54:03;;;;;;;26.80;14.17;;;3.30;94.00;;;;;;5015055;28;20037;-90
2021/01/29 02:56:36;;;;;;;;;;;3.30;94.00;;;;;;5016411;28;20029;-89
2021/01/29 02:59:19;;;;;;;28.30;14.37;;;3.30;94.00;;;;;;5015962;28;19920;-89
2021/01/29 03:01:57;;;;;;;27.30;12.83;;;3.40;94.00;;;;;;5015533;28;20483;-90
2021/01/29 03:04:38;;;;;;;26.67;13.63;;;3.40;93.90;;;;;;5015074;28;20475;-89
2021/01/29 03:07:25;;;;;;;27.37;14.60;;;3.40;94.00;;;;;;5015093;28;20268;-90
2021/01/29 03:09:58;;;;;;;29.03;14.60;;;3.40;93.90;;;;;;5015109;28;20501;-89
2021/01/29 03:12:32;;;;;;;28.67;15.13;;;3.40;94.00;;;;;;5015097;28;20018;-90
2021/01/29 03:15:00;;;;;;;26.47;13.47;;;3.30;94.00;;;;;;5014766;28;20060;-90
2021/01/29 03:17:34;;;;;;;25.02;13.10;;;3.40;94.00;;;;;;5014941;28;20021;-90
2021/01/29 03:20:10;;;;;;;24.87;12.50;;;3.30;94.00;;;;;;5014939;28;20033;-89
2021/01/29 03:22:42;;;;;;;25.43;13.23;;;3.40;94.10;;;;;;5015087;28;20498;-90
2021/01/29 03:25:19;;;;;;;26.37;13.50;;;3.40;94.10;;;;;;5017764;28;20139;-90
2021/01/29 03:27:54;;;;;;;25.50;12.73;;;3.40;94.10;;;;;;5019213;28;20172;-90
2021/01/29 03:30:45;;;;;;;26.27;13.43;;;3.40;94.20;;;;;;5018993;28;20116;-90
2021/01/29 03:33:13;;;;;;;26.90;13.03;;;3.30;94.20;;;;;;5018696;28;20518;-90
2021/01/29 03:36:00;;;;;;;25.70;13.10;;;3.40;94.20;;;;;;5018854;28;20033;-91
2021/01/29 03:38:34;;;;;;;25.00;12.57;;;3.40;94.20;;;;;;5018234;28;20029;-90
2021/01/29 03:41:25;;;;;;;24.00;11.97;;;3.40;94.20;;;;;;5036269;28;20025;-90
2021/01/29 03:44:14;;;;;;;24.53;12.00;;;3.40;94.30;;;;;;5018465;28;20021;-90
2021/01/29 03:47:01;;;;;;;24.10;12.95;;;3.40;94.30;;;;;;5018617;28;20120;-90
2021/01/29 03:49:45;;;;;;;22.57;11.70;;;3.40;94.30;;;;;;5018652;28;20029;-90
2021/01/29 03:52:10;;;;;;;23.17;11.33;;;3.40;94.30;;;;;;5019017;28;20372;-90
2021/01/29 03:55:12;;;;;;;24.07;12.07;;;3.30;94.40;;;;;;5019589;28;20079;-90
2021/01/29 03:57:57;;;;;;;23.10;11.50;;;3.30;94.40;;;;;;5019410;28;20049;-90
2021/01/29 04:00:30;;;;;;;23.23;11.47;;;3.30;94.50;;;;;;5018268;28;20025;-90
2021/01/29 04:03:02;;;;;;;22.20;10.50;;;3.40;94.50;;;;;;5018398;28;20025;-89
2021/01/29 04:05:42;;;;;;;22.57;10.70;;;3.40;94.50;;;;;;5018102;28;20084;-90
2021/01/29 04:08:21;;;;;;;22.40;11.30;;;3.40;94.50;;;;;;5018428;28;20029;-90
2021/01/29 04:10:50;;;;;;;23.47;11.50;;;3.40;94.50;;;;;;5019178;28;20542;-90
2021/01/29 04:13:33;;;;;;;22.20;10.50;;;3.40;94.70;;;;;;5019613;28;20026;-90
2021/01/29 04:15:59;;;;;;;21.33;10.37;;;3.40;94.60;;;;;;5017967;28;20084;-90
2021/01/29 04:18:49;;;;;;;21.83;10.37;;;3.40;94.60;;;;;;5018150;28;20387;-90
2021/01/29 04:21:23;;;;;;;21.83;10.17;;;3.30;94.60;;;;;;5018069;28;20108;-89
2021/01/29 04:24:07;;;;;;;22.13;11.10;;;3.40;94.70;;;;;;5018308;28;20025;-91
2021/01/29 04:26:40;;;;;;;22.97;10.50;;;3.40;94.70;;;;;;5018457;28;20419;-91
2021/01/29 04:29:13;;;;;;;19.83;9.20;;;3.40;94.70;;;;;;5018372;28;20029;-90
2021/01/29 04:31:40;;;;;;;20.57;9.50;;;3.40;94.70;;;;;;5017566;28;20153;-90
2021/01/29 04:34:11;;;;;;;20.63;9.70;;;3.40;94.70;;;;;;5017703;28;20030;-90
2021/01/29 04:36:38;;;;;;;20.13;8.93;;;3.40;94.70;;;;;;5017573;28;20029;-89
2021/01/29 04:39:11;;;;;;;22.27;9.30;;;3.40;94.80;;;;;;5035401;28;20566;-90
2021/01/29 04:42:03;;;;;;;19.63;8.60;;;3.40;94.80;;;;;;5017595;28;20017;-90
2021/01/29 04:44:52;;;;;;;19.57;8.30;;;3.40;94.90;;;;;;5017329;28;20022;-90
2021/01/29 04:47:22;;;;;;;17.95;7.65;;;3.40;94.90;;;;;;4977581;28;20073;-90
2021/01/29 04:50:15;;;;;;;18.97;8.73;;;3.40;94.90;;;;;;5035632;28;20045;-90
2021/01/29 04:53:04;;;;;;;19.10;8.30;;;3.40;94.90;;;;;;5034978;28;20041;-89
2021/01/29 04:55:45;;;;;;;18.83;7.95;;;3.40;95.00;;;;;;5006807;28;20037;-90
2021/01/29 04:58:16;;;;;;;18.87;8.30;;;3.40;95.00;;;;;;5017366;28;20116;-90
2021/01/29 05:01:09;;;;;;;18.83;8.23;;;3.40;95.10;;;;;;5017199;28;20072;-90
2021/01/29 05:04:17;;;;;;;17.20;7.07;;;3.40;95.00;;;;;;5017663;28;20254;-90
2021/01/29 05:07:06;;;;;;;18.33;6.53;;;3.40;95.10;;;;;;5006627;28;20406;-89
2021/01/29 05:09:57;;;;;;;17.60;7.67;;;3.40;95.10;;;;;;5017045;28;20022;-90
2021/01/29 05:12:38;;;;;;;16.43;6.60;;;3.40;95.10;;;;;;5017052;28;20372;-89
2021/01/29 05:15:44;;;;;;;17.67;7.47;;;3.40;95.10;;;;;;5016733;28;20410;-90
2021/01/29 05:18:51;;;;;;;17.10;6.93;;;3.40;95.10;;;;;;4973814;28;20479;-89
2021/01/29 05:21:58;;;;;;;16.40;6.77;;;3.40;95.20;;;;;;5016644;28;20498;-90
2021/01/29 05:24:53;;;;;;;15.50;6.07;;;3.40;95.10;;;;;;4953279;28;20034;-90
2021/01/29 05:27:33;;;;;;;15.93;5.97;;;3.40;95.30;;;;;;5016490;28;20034;-90
2021/01/29 05:30:20;;;;;;;17.00;6.17;;;3.50;95.20;;;;;;5033942;28;20029;-90
2021/01/29 05:32:52;;;;;;;17.57;6.37;;;3.40;95.20;;;;;;4998078;28;20054;-90
2021/01/29 05:35:34;;;;;;;15.93;7.03;;;3.40;95.30;;;;;;4996629;28;20037;-90
2021/01/29 05:38:36;;;;;;;15.73;6.27;;;3.40;95.20;;;;;;4997145;28;20120;-90
2021/01/29 05:41:23;;;;;;;16.83;6.73;;;3.50;95.30;;;;;;4996772;28;20030;-90
2021/01/29 05:44:24;;;;;;;16.80;6.77;;;3.50;95.30;;;;;;4996766;28;20526;-89
2021/01/29 05:47:06;;;;;;;16.23;6.30;;;3.50;95.30;;;;;;4930949;28;20185;-90
2021/01/29 05:50:07;;;;;;;18.97;7.00;;;3.50;95.30;;;;;;4996625;28;20021;-90
2021/01/29 05:53:20;;;;;;;16.33;6.47;;;3.50;95.30;;;;;;4956262;28;20045;-91
2021/01/29 05:56:17;;;;;;;16.07;6.43;;;3.60;95.30;;;;;;4923243;28;20132;-90
2021/01/29 05:59:19;;;;;;;15.70;7.00;;;3.60;95.30;;;;;;4995507;28;20467;-89
2021/01/29 06:01:47;;;;;;;15.47;6.17;;;3.50;95.20;;;;;;4996333;28;20053;-91
2021/01/29 06:04:31;;;;;;;18.02;7.32;;;3.50;95.30;;;;;;4995882;28;20442;-89
2021/01/29 06:07:33;;;;;;;16.43;6.43;;;3.50;95.40;;;;;;4994943;28;20026;-89
2021/01/29 06:10:36;;;;;;;17.83;7.07;;;3.60;95.30;;;;;;4996393;28;20045;-90
2021/01/29 06:13:43;;;;;;;16.00;7.10;;;3.60;95.30;;;;;;4996419;28;20045;-89
2021/01/29 06:16:31;;;;;;;15.77;6.47;;;3.60;95.40;;;;;;4950180;28;20046;-89
2021/01/29 06:19:15;;;;;;;16.10;7.40;;;3.60;95.30;;;;;;5014046;28;20462;-89
2021/01/29 06:22:08;;;;;;;14.37;6.43;;;3.60;95.30;;;;;;5008993;28;20034;-90
2021/01/29 06:24:34;;;;;;;17.17;6.60;;;3.50;95.40;;;;;;4996320;28;20037;-90
2021/01/29 06:27:22;;;;;;;16.30;7.13;;;3.60;95.40;;;;;;4996409;28;20069;-90
2021/01/29 06:30:06;;;;;;;15.97;6.90;;;3.60;95.40;;;;;;4997725;28;20026;-90
2021/01/29 06:32:47;;;;;;;15.00;6.30;;;3.60;95.40;;;;;;4997349;28;20101;-91
2021/01/29 06:35:21;;;;;;;15.57;6.30;;;3.60;95.40;;;;;;4996425;28;20116;-90
2021/01/29 06:37:52;;;;;;;15.63;6.23;;;3.60;95.40;;;;;;4998239;28;20018;-86
2021/01/29 06:40:30;;;;;;;15.67;6.33;;;3.60;95.50;;;;;;5016686;28;20038;-87
2021/01/29 06:43:37;;;;;;;15.13;6.40;;;3.60;95.40;;;;;;4997804;28;20072;-86
2021/01/29 06:46:21;;;;;;;13.63;5.60;;;3.60;95.40;;;;;;5016245;28;20494;-85
2021/01/29 06:49:07;;;;;;;14.53;6.00;;;3.60;95.40;;;;;;5015448;28;20168;-91
2021/01/29 06:52:12;;;;;;;13.13;5.47;;;3.60;95.40;;;;;;5000114;28;20105;-90
2021/01/29 06:55:21;;;;;;;12.77;5.33;;;3.70;95.40;;;;;;5000801;28;20029;-89
2021/01/29 06:58:13;;;;;;;14.67;5.93;;;3.70;95.50;;;;;;5011746;28;20094;-89
2021/01/29 07:01:10;;;;;;;13.10;5.37;;;3.60;95.50;;;;;;5004570;28;20029;-89
2021/01/29 07:03:55;;;;;;;12.60;5.67;;;3.60;95.50;;;;;;5003495;28;20022;-87
2021/01/29 07:06:26;;;;;;;14.03;5.17;;;3.70;95.50;;;;;;5010544;28;20116;-88
2021/01/29 07:09:14;;;;;;;15.17;5.40;;;3.70;95.40;;;;;;5017406;28;20455;-86
2021/01/29 07:11:54;;;;;;;13.87;5.47;;;3.60;95.40;;;;;;5036629;28;20056;-84
2021/01/29 07:14:24;;;;;;;14.03;5.33;;;3.70;95.50;;;;;;5037169;28;20029;-85
2021/01/29 07:16:59;;;;;;;13.37;5.80;;;3.70;95.50;;;;;;5017167;28;20132;-86
2021/01/29 07:20:03;;;;;;;14.57;5.30;;;3.70;95.40;;;;;;5016990;28;20101;-86
2021/01/29 07:23:06;;;;;;;12.83;5.53;;;3.70;95.40;;;;;;4999275;28;20029;-84
2021/01/29 07:25:55;;;;;;;13.67;5.43;;;3.70;95.50;;;;;;5022130;28;20037;-88
2021/01/29 07:28:40;;;;;;;11.83;4.97;;;3.70;95.50;;;;;;5013565;28;20033;-87
2021/01/29 07:31:36;;;;;;;14.50;5.67;;;3.70;95.60;;;;;;4994192;28;20046;-88
2021/01/29 07:34:34;;;;;;;14.23;5.50;;;3.70;95.60;;;;;;4994326;28;20040;-90
2021/01/29 07:37:11;;;;;;;13.17;5.27;;;3.70;95.60;;;;;;5000835;28;20060;-88
2021/01/29 07:40:10;;;;;;;13.37;5.27;;;3.70;95.60;;;;;;5013782;28;20117;-88
2021/01/29 07:42:59;;;;;;;11.57;4.93;;;3.70;95.60;;;;;;4994377;28;20048;-89
2021/01/29 07:45:44;;;;;;;12.15;5.05;;;3.70;95.60;;;;;;4998092;28;20033;-88
2021/01/29 07:48:31;;;;;;;12.97;5.20;;;3.70;95.60;;;;;;5014207;28;20545;-86
2021/01/29 07:51:49;;;;;;;13.10;5.13;;;3.70;95.60;;;;;;5006417;28;20018;-88
2021/01/29 07:54:36;;;;;;;14.83;5.37;;;3.70;95.60;;;;;;4916049;29;20028;-89
2021/01/29 07:57:43;;;;;;;12.93;5.30;;;3.70;95.60;;;;;;5023621;28;20487;-92
2021/01/29 08:00:20;;;;;;;13.10;4.83;;;3.70;95.60;;;;;;5012296;28;20446;-90
2021/01/29 08:03:11;;;;;;;13.90;5.60;;;3.70;95.60;;;;;;4998740;28;20352;-89
2021/01/29 08:06:11;;;;;;;12.90;5.20;;;3.80;95.60;;;;;;4995097;28;20029;-84
2021/01/29 08:09:11;;;;;;;14.93;5.23;;;3.80;95.50;;;;;;5007558;28;20026;-82
2021/01/29 08:11:38;;;;;;;;;;;3.80;95.50;;;;;;5011264;28;20033;-90
2021/01/29 08:14:50;;;;;;;12.37;5.20;;;3.80;95.50;;;;;;5023969;28;19905;-87
2021/01/29 08:17:27;;;;;;;11.97;4.60;;;3.80;95.60;;;;;;4993171;28;20120;-88
2021/01/29 08:20:08;;;;;;;12.87;5.23;;;3.80;95.60;;;;;;5012100;28;20115;-89
2021/01/29 08:22:47;;;;;;;14.27;5.43;;;3.80;95.50;;;;;;5007238;28;20113;-88
2021/01/29 08:25:44;;;;;;;12.65;4.78;;;3.80;95.60;;;;;;5010755;28;20223;-89
2021/01/29 08:28:29;;;;;;;14.83;6.10;;;3.80;95.70;;;;;;5017217;28;20030;-91
2021/01/29 08:31:32;;;;;;;13.17;5.13;;;3.80;95.70;;;;;;5018047;28;20060;-92
2021/01/29 08:34:16;;;;;;;12.90;5.27;;;3.80;95.70;;;;;;5014517;28;20033;-89
2021/01/29 08:37:26;;;;;;;13.67;5.40;;;3.80;95.60;;;;;;5001497;28;20464;-91
2021/01/29 08:40:07;;;;;;;12.93;4.93;;;3.90;95.60;;;;;;5002137;28;20426;-90
2021/01/29 08:42:57;;;;;;;13.10;5.27;;;3.90;95.70;;;;;;4997255;28;20030;-88
2021/01/29 08:45:48;;;;;;;13.03;4.93;;;3.80;95.60;;;;;;4984914;28;20046;-89
2021/01/29 08:48:27;;;;;;;13.70;5.60;;;3.80;95.60;;;;;;5009539;28;20029;-89
2021/01/29 08:51:05;;;;;;;12.77;5.18;;;3.80;95.70;;;;;;5016754;28;20026;-88
2021/01/29 08:53:50;;;;;;;19.43;8.37;;;3.80;95.60;;;;;;4998436;28;20038;-89
2021/01/29 08:56:25;;;;;;;12.93;5.33;;;3.80;95.60;;;;;;4997340;28;20084;-90
2021/01/29 08:59:04;;;;;;;13.73;5.50;;;3.90;95.60;;;;;;5004916;28;20026;-88
2021/01/29 09:01:42;;;;;;;14.23;5.67;;;3.90;95.60;;;;;;5002566;28;20407;-89
2021/01/29 09:04:13;;;;;;;14.17;5.50;;;3.90;95.70;;;;;;5001899;28;20018;-85
2021/01/29 09:06:42;;;;;;;14.27;5.57;;;3.90;95.60;;;;;;5018502;28;20026;-89
2021/01/29 09:09:16;;;;;;;12.68;5.20;;;3.90;95.60;;;;;;4997727;28;20026;-91
2021/01/29 09:11:47;;;;;;;12.27;5.00;;;3.90;95.70;;;;;;5007434;28;20443;-88
2021/01/29 09:14:21;;;;;;;12.77;4.70;;;3.90;95.70;;;;;;5020920;28;20020;-91
2021/01/29 09:16:47;;;;;;;13.27;5.03;;;3.90;95.70;;;;;;5024547;28;20430;-90
2021/01/29 09:19:16;;;;;;;11.40;4.80;;;4.00;95.70;;;;;;5016379;28;20483;-85
2021/01/29 09:22:09;;;;;;;14.20;5.53;;;4.00;95.70;;;;;;5001745;28;20026;-89
2021/01/29 09:24:51;;;;;;;13.70;5.63;;;4.00;95.70;;;;;;5000591;28;20064;-90
2021/01/29 09:27:46;;;;;;;14.07;5.20;;;4.00;95.80;;;;;;5019567;28;20029;-91
2021/01/29 09:30:18;;;;;;;15.10;4.93;;;4.00;95.80;;;;;;4998488;28;20033;-90
2021/01/29 09:33:16;;;;;;;12.33;4.60;;;4.00;95.70;;;;;;5024845;28;20076;-84
2021/01/29 09:35:50;;;;;;;11.93;4.80;;;4.00;95.70;;;;;;5024306;28;20029;-91
2021/01/29 09:38:29;;;;;;;12.93;5.30;;;4.00;95.90;;;;;;5007886;28;20026;-91
2021/01/29 09:41:19;;;;;;;11.93;4.97;;;4.00;95.70;;;;;;4999491;28;20028;-89
2021/01/29 09:44:14;;;;;;;11.10;4.40;;;4.00;95.70;;;;;;4999827;28;20030;-91
2021/01/29 09:46:44;;;;;;;12.43;4.57;;;4.10;95.70;;;;;;4999853;28;20084;-93
2021/01/29 09:49:26;;;;;;;10.07;4.10;;;4.10;96.00;;;;;;5010477;28;20014;-91
2021/01/29 09:52:02;;;;;;;8.63;3.70;;;4.10;95.90;;;;;;5004511;28;20479;-93
2021/01/29 09:54:51;;;;;;;11.20;4.20;;;4.10;95.80;;;;;;5002981;28;20024;-91
2021/01/29 09:57:24;;;;;;;21.50;10.38;;;4.10;95.80;;;;;;5001591;28;20065;-91
2021/01/29 10:00:01;;;;;;;14.67;5.67;;;4.10;96.00;;;;;;5017134;28;20129;-91
2021/01/29 10:02:37;;;;;;;14.47;5.20;;;4.10;96.20;;;;;;5020292;28;20026;-81
2021/01/29 10:05:17;;;;;;;12.70;5.23;;;4.10;96.20;;;;;;5024483;28;20198;-81
2021/01/29 10:08:08;;;;;;;14.23;5.47;;;4.20;96.00;;;;;;5036004;28;20030;-89
2021/01/29 10:10:50;;;;;;;14.50;5.70;;;4.20;96.40;;;;;;4999755;28;20502;-91
2021/01/29 10:13:27;;;;;;;14.63;5.63;;;4.20;96.40;;;;;;5008771;28;20022;-91
2021/01/29 10:16:17;;;;;;;14.20;5.97;;;4.20;96.50;;;;;;5016778;28;20124;-89
2021/01/29 10:19:09;;;;;;;14.77;5.97;;;4.30;96.60;;;;;;5015227;28;20530;-89
2021/01/29 10:21:56;;;;;;;13.87;5.93;;;4.30;97.00;;;;;;5015344;28;20079;-89
2021/01/29 10:24:43;;;;;;;14.40;5.93;;;4.40;96.90;;;;;;5017282;28;20387;-91
2021/01/29 10:27:10;;;;;;;15.50;6.17;;;4.40;96.90;;;;;;5015665;28;20018;-88
2021/01/29 10:29:42;;;;;;;16.73;6.90;;;4.40;97.10;;;;;;5016322;28;20598;-86
2021/01/29 10:32:25;;;;;;;18.03;7.17;;;4.50;97.60;;;;;;5017226;28;20048;-85
2021/01/29 10:35:21;;;;;;;17.03;7.40;;;4.60;97.90;;;;;;5036963;28;20036;-92
2021/01/29 10:38:20;;;;;;;16.47;7.33;;;4.70;98.20;;;;;;5017982;28;20032;-90
2021/01/29 10:41:01;;;;;;;18.37;8.40;;;4.80;98.30;;;;;;5015920;28;20034;-88
2021/01/29 10:43:27;;;;;;;19.30;8.60;;;4.80;97.70;;;;;;5016287;28;20025;-88
2021/01/29 10:45:59;;;;;;;17.40;8.00;;;4.90;97.90;;;;;;5016150;28;20088;-92
2021/01/29 10:48:44;;;;;;;16.57;6.87;;;5.00;96.60;;;;;;5014186;28;20112;-88
2021/01/29 10:51:37;;;;;;;17.93;7.20;;;5.10;96.20;;;;;;5031649;28;20049;-88
2021/01/29 10:54:06;;;;;;;16.77;7.30;;;5.20;96.00;;;;;;5015278;28;20036;-89
2021/01/29 10:56:53;;;;;;;18.40;8.13;;;5.40;96.40;;;;;;5015025;28;20033;-88
2021/01/29 10:59:52;;;;;;;20.47;8.17;;;5.50;95.90;;;;;;5016559;28;20025;-88
2021/01/29 11:02:32;;;;;;;20.30;8.23;;;5.60;95.30;;;;;;5004276;28;20029;-85
2021/01/29 11:05:06;;;;;;;19.53;8.73;;;5.70;95.10;;;;;;5014444;28;20069;-88
2021/01/29 11:07:39;;;;;;;17.63;7.93;;;5.90;94.80;;;;;;4996263;28;20510;-90
2021/01/29 11:10:22;;;;;;;19.93;8.60;;;6.00;94.70;;;;;;4996272;28;20029;-89
2021/01/29 11:12:53;;;;;;;21.13;8.63;;;6.10;94.80;;;;;;4996301;28;20510;-88
2021/01/29 11:15:24;;;;;;;19.90;8.63;;;6.20;95.70;;;;;;4995690;28;20026;-89
2021/01/29 11:18:01;;;;;;;18.67;8.20;;;6.20;95.00;;;;;;4995840;28;20029;-87
2021/01/29 11:20:29;;;;;;;19.20;8.13;;;6.20;95.10;;;;;;4995707;28;20563;-89
2021/01/29 11:23:33;;;;;;;18.47;8.53;;;6.30;95.20;;;;;;4995279;28;20054;-88
2021/01/29 11:26:20;;;;;;;17.70;8.27;;;6.30;96.20;;;;;;5007442;28;20025;-89
2021/01/29 11:28:59;;;;;;;17.97;8.57;;;6.30;95.50;;;;;;4995945;28;20026;-90
2021/01/29 11:31:59;;;;;;;20.47;9.53;;;6.40;95.40;;;;;;5012825;28;20053;-88
2021/01/29 11:34:32;;;;;;;17.63;7.20;;;6.40;96.50;;;;;;5007889;28;20032;-89
2021/01/29 11:37:10;;;;;;;15.77;6.43;;;6.40;96.20;;;;;;5015522;28;20025;-89
2021/01/29 11:39:48;;;;;;;16.33;6.80;;;6.50;95.20;;;;;;5014425;28;20022;-88
2021/01/29 11:42:44;;;;;;;17.02;5.85;;;6.60;95.90;;;;;;5015522;28;20026;-89
2021/01/29 11:45:28;;;;;;;19.00;6.17;;;6.70;95.90;;;;;;5020884;28;20033;-90
2021/01/29 11:48:21;;;;;;;16.13;5.10;;;6.80;95.40;;;;;;5020223;28;20128;-87
2021/01/29 11:51:17;;;;;;;16.77;5.60;;;6.80;95.10;;;;;;5006340;28;20032;-88
2021/01/29 11:54:06;;;;;;;19.63;6.17;;;6.90;95.20;;;;;;5039267;28;20021;-89
2021/01/29 11:56:45;;;;;;;20.73;6.43;;;7.00;95.20;;;;;;5032279;28;20058;-85
2021/01/29 11:59:18;;;;;;;17.80;6.07;;;7.00;95.50;;;;;;5020176;28;20018;-81
2021/01/29 12:02:06;;;;;;;21.00;7.03;;;7.10;94.80;;;;;;5011327;28;20180;-81
2021/01/29 12:04:38;;;;;;;27.00;7.03;;;7.10;94.80;;;;;;5036552;28;20052;-86
2021/01/29 12:07:07;;;;;;;21.80;6.57;;;7.20;94.80;;;;;;5002991;28;20442;-88
2021/01/29 12:10:07;;;;;;;24.63;6.73;;;7.30;95.40;;;;;;5002288;28;20081;-89
2021/01/29 12:13:08;;;;;;;25.40;8.40;;;7.30;95.50;;;;;;4999125;28;20041;-88
2021/01/29 12:15:45;;;;;;;21.23;7.40;;;7.40;95.20;;;;;;4983654;28;20479;-83
2021/01/29 12:18:14;;;;;;;30.37;8.83;;;7.40;95.10;;;;;;5021149;28;20129;-83
2021/01/29 12:20:42;;;;;;;30.50;9.60;;;7.40;94.70;;;;;;5019939;28;21134;-83
2021/01/29 12:23:11;;;;;;;27.30;8.70;;;7.40;95.30;;;;;;5000057;28;20498;-80
2021/01/29 12:25:42;;;;;;;26.58;8.38;;;7.40;94.80;;;;;;5018785;28;20034;-90
2021/01/29 12:28:23;;;;;;;25.50;6.90;;;7.50;94.80;;;;;;5024751;28;20033;-86
2021/01/29 12:31:07;;;;;;;22.10;7.10;;;7.50;94.80;;;;;;5022834;28;20132;-88
2021/01/29 12:33:53;;;;;;;23.50;6.60;;;7.50;94.80;;;;;;5019031;28;20028;-89
2021/01/29 12:36:23;;;;;;;20.33;6.67;;;7.60;94.80;;;;;;5020128;28;20475;-90
2021/01/29 12:39:22;;;;;;;26.13;6.20;;;7.60;94.80;;;;;;5020004;28;20053;-90
2021/01/29 12:41:51;;;;;;;25.10;6.22;;;7.60;94.80;;;;;;5020125;28;20022;-90
2021/01/29 12:44:34;;;;;;;22.80;5.95;;;7.70;95.30;;;;;;5022411;28;20026;-92
2021/01/29 12:47:25;;;;;;;25.67;6.10;;;7.60;95.20;;;;;;5021632;28;20036;-85
2021/01/29 12:50:17;;;;;;;24.40;6.20;;;7.60;95.30;;;;;;5022938;28;20033;-93
2021/01/29 12:53:02;;;;;;;24.63;6.13;;;7.60;95.00;;;;;;5018553;28;20406;-84
2021/01/29 12:55:37;;;;;;;23.80;6.03;;;7.60;94.70;;;;;;5002139;28;20025;-86
2021/01/29 12:58:10;;;;;;;22.23;5.20;;;7.70;94.80;;;;;;4999209;28;20026;-86
2021/01/29 13:00:41;;;;;;;27.50;5.67;;;7.70;94.80;;;;;;5012433;28;20028;-87
2021/01/29 13:03:40;;;;;;;24.50;5.50;;;7.70;94.80;;;;;;5018732;28;20055;-87
2021/01/29 13:06:21;;;;;;;21.63;5.40;;;7.70;95.30;;;;;;5018320;28;20479;-87
2021/01/29 13:09:13;;;;;;;22.90;4.80;;;7.70;94.80;;;;;;5015873;28;20552;-89
2021/01/29 13:11:55;;;;;;;23.80;4.67;;;7.70;94.90;;;;;;5018941;28;20040;-86
2021/01/29 13:14:40;;;;;;;22.73;5.13;;;7.70;95.30;;;;;;5020557;28;20063;-93
2021/01/29 13:17:25;;;;;;;31.07;9.57;;;7.70;95.00;;;;;;5019015;28;20475;-91
2021/01/29 13:20:30;;;;;;;32.63;8.17;;;7.70;94.90;;;;;;5019462;28;20101;-93
2021/01/29 13:23:14;;;;;;;42.40;11.23;;;7.70;95.00;;;;;;5017269;28;20021;-92
2021/01/29 13:25:56;;;;;;;31.37;6.80;;;7.70;95.00;;;;;;5026080;28;20025;-91
2021/01/29 13:28:21;;;;;;;24.30;5.83;;;7.80;95.10;;;;;;5036320;28;20017;-93
2021/01/29 13:30:47;;;;;;;29.93;6.87;;;7.80;94.90;;;;;;5028730;28;20099;-90
2021/01/29 13:33:26;;;;;;;27.70;5.87;;;7.80;95.10;;;;;;5002533;28;20137;-89
2021/01/29 13:36:16;;;;;;;29.65;6.00;;;7.80;95.00;;;;;;4994604;28;20034;-89
2021/01/29 13:38:43;;;;;;;32.23;6.13;;;7.90;94.90;;;;;;5000848;28;20021;-90
2021/01/29 13:41:21;;;;;;;26.80;6.13;;;7.90;94.80;;;;;;5025815;28;20026;-91
2021/01/29 13:43:47;;;;;;;27.42;4.72;;;7.90;94.80;;;;;;5031966;28;20026;-91
2021/01/29 13:46:31;;;;;;;26.07;4.50;;;7.90;94.70;;;;;;5015988;28;20076;-92
2021/01/29 13:49:29;;;;;;;30.43;5.87;;;7.90;94.80;;;;;;5021114;28;20032;-85
2021/01/29 13:51:55;;;;;;;31.90;7.13;;;7.90;94.70;;;;;;5005096;28;20133;-92
2021/01/29 13:54:37;;;;;;;24.70;4.93;;;7.90;94.60;;;;;;5038499;28;20032;-89
2021/01/29 13:57:30;;;;;;;27.80;5.87;;;7.90;94.80;;;;;;5033463;28;20113;-92